sensor_id;sensor_type;location;lat;lon;timestamp;pressure;altitude;pressure_sealevel;temperature
20730;BMP280;10526;50.850;12.928;2023-12-20T00:03:51;97516.50;;;4.20
20730;BMP280;10526;50.850;12.928;2023-12-20T00:08:13;97510.81;;;4.18
20730;BMP280;10526;50.850;12.928;2023-12-20T00:12:35;97504.44;;;4.19
20730;BMP280;10526;50.850;12.928;2023-12-20T00:16:57;97509.69;;;4.16
20730;BMP280;10526;50.850;12.928;2023-12-20T00:21:19;97500.66;;;4.17
20730;BMP280;10526;50.850;12.928;2023-12-20T00:25:41;97501.03;;;4.15
20730;BMP280;10526;50.850;12.928;2023-12-20T00:30:04;97498.72;;;4.14
20730;BMP280;10526;50.850;12.928;2023-12-20T00:34:26;97493.41;;;4.10
20730;BMP280;10526;50.850;12.928;2023-12-20T00:38:48;97490.78;;;4.10
20730;BMP280;10526;50.850;12.928;2023-12-20T00:43:12;97488.94;;;4.14
20730;BMP280;10526;50.850;12.928;2023-12-20T00:47:34;97483.28;;;4.12
20730;BMP280;10526;50.850;12.928;2023-12-20T00:51:56;97470.81;;;4.09
20730;BMP280;10526;50.850;12.928;2023-12-20T00:56:18;97473.78;;;4.04
20730;BMP280;10526;50.850;12.928;2023-12-20T01:00:40;97467.75;;;4.04
20730;BMP280;10526;50.850;12.928;2023-12-20T01:05:06;97470.72;;;4.02
20730;BMP280;10526;50.850;12.928;2023-12-20T01:09:29;97464.66;;;3.98
20730;BMP280;10526;50.850;12.928;2023-12-20T01:13:51;97468.03;;;3.95
20730;BMP280;10526;50.850;12.928;2023-12-20T01:18:14;97457.91;;;3.97
20730;BMP280;10526;50.850;12.928;2023-12-20T01:22:36;97466.50;;;3.94
20730;BMP280;10526;50.850;12.928;2023-12-20T01:26:58;97460.50;;;3.93
20730;BMP280;10526;50.850;12.928;2023-12-20T01:31:20;97456.69;;;3.91
20730;BMP280;10526;50.850;12.928;2023-12-20T01:35:42;97453.28;;;3.90
20730;BMP280;10526;50.850;12.928;2023-12-20T01:40:05;97452.50;;;3.86
20730;BMP280;10526;50.850;12.928;2023-12-20T01:44:27;97453.94;;;3.84
20730;BMP280;10526;50.850;12.928;2023-12-20T01:48:50;97444.16;;;3.81
20730;BMP280;10526;50.850;12.928;2023-12-20T01:53:13;97440.41;;;3.82
20730;BMP280;10526;50.850;12.928;2023-12-20T01:57:36;97429.81;;;3.78
20730;BMP280;10526;50.850;12.928;2023-12-20T02:01:58;97434.31;;;3.78
20730;BMP280;10526;50.850;12.928;2023-12-20T02:06:22;97423.38;;;3.75
20730;BMP280;10526;50.850;12.928;2023-12-20T02:10:45;97427.16;;;3.74
20730;BMP280;10526;50.850;12.928;2023-12-20T02:15:08;97417.00;;;3.73
20730;BMP280;10526;50.850;12.928;2023-12-20T02:19:30;97420.38;;;3.73
20730;BMP280;10526;50.850;12.928;2023-12-20T02:23:53;97427.47;;;3.69
20730;BMP280;10526;50.850;12.928;2023-12-20T02:28:16;97419.91;;;3.68
20730;BMP280;10526;50.850;12.928;2023-12-20T02:32:38;97410.50;;;3.67
20730;BMP280;10526;50.850;12.928;2023-12-20T02:37:00;97409.75;;;3.66
20730;BMP280;10526;50.850;12.928;2023-12-20T02:41:22;97401.84;;;3.66
20730;BMP280;10526;50.850;12.928;2023-12-20T02:45:44;97407.44;;;3.65
20730;BMP280;10526;50.850;12.928;2023-12-20T02:50:07;97404.06;;;3.64
20730;BMP280;10526;50.850;12.928;2023-12-20T02:54:29;97400.28;;;3.62
20730;BMP280;10526;50.850;12.928;2023-12-20T02:58:51;97407.44;;;3.65
20730;BMP280;10526;50.850;12.928;2023-12-20T03:03:13;97412.72;;;3.65
20730;BMP280;10526;50.850;12.928;2023-12-20T03:07:37;97393.94;;;3.66
20730;BMP280;10526;50.850;12.928;2023-12-20T03:12:00;97386.75;;;3.63
20730;BMP280;10526;50.850;12.928;2023-12-20T03:16:22;97392.03;;;3.63
20730;BMP280;10526;50.850;12.928;2023-12-20T03:20:46;97391.63;;;3.61
20730;BMP280;10526;50.850;12.928;2023-12-20T03:25:11;97390.50;;;3.62
20730;BMP280;10526;50.850;12.928;2023-12-20T03:29:33;97395.06;;;3.65
20730;BMP280;10526;50.850;12.928;2023-12-20T03:33:55;97384.53;;;3.65
20730;BMP280;10526;50.850;12.928;2023-12-20T03:38:18;97393.53;;;3.64
20730;BMP280;10526;50.850;12.928;2023-12-20T03:42:40;97378.09;;;3.63
20730;BMP280;10526;50.850;12.928;2023-12-20T03:47:03;97389.81;;;3.65
20730;BMP280;10526;50.850;12.928;2023-12-20T03:51:24;97398.09;;;3.67
20730;BMP280;10526;50.850;12.928;2023-12-20T03:55:47;97385.63;;;3.64
20730;BMP280;10526;50.850;12.928;2023-12-20T04:00:09;97394.28;;;3.65
20730;BMP280;10526;50.850;12.928;2023-12-20T04:04:34;97384.13;;;3.63
20730;BMP280;10526;50.850;12.928;2023-12-20T04:08:57;97384.50;;;3.62
20730;BMP280;10526;50.850;12.928;2023-12-20T04:13:19;97391.22;;;3.59
20730;BMP280;10526;50.850;12.928;2023-12-20T04:17:41;97381.50;;;3.63
20730;BMP280;10526;50.850;12.928;2023-12-20T04:22:04;97382.63;;;3.62
20730;BMP280;10526;50.850;12.928;2023-12-20T04:26:26;97375.06;;;3.61
20730;BMP280;10526;50.850;12.928;2023-12-20T04:30:48;97380.31;;;3.61
20730;BMP280;10526;50.850;12.928;2023-12-20T04:35:10;97385.94;;;3.59
20730;BMP280;10526;50.850;12.928;2023-12-20T04:39:32;97391.63;;;3.61
20730;BMP280;10526;50.850;12.928;2023-12-20T04:43:55;97389.81;;;3.65
20730;BMP280;10526;50.850;12.928;2023-12-20T04:48:17;97398.03;;;3.64
20730;BMP280;10526;50.850;12.928;2023-12-20T04:52:39;97394.66;;;3.63
20730;BMP280;10526;50.850;12.928;2023-12-20T04:57:01;97405.56;;;3.62
20730;BMP280;10526;50.850;12.928;2023-12-20T05:01:23;97399.56;;;3.65
20730;BMP280;10526;50.850;12.928;2023-12-20T05:05:48;97401.81;;;3.63
20730;BMP280;10526;50.850;12.928;2023-12-20T05:10:10;97414.97;;;3.63
20730;BMP280;10526;50.850;12.928;2023-12-20T05:14:33;97416.84;;;3.62
20730;BMP280;10526;50.850;12.928;2023-12-20T05:18:54;97422.91;;;3.66
20730;BMP280;10526;50.850;12.928;2023-12-20T05:23:18;97410.19;;;3.72
20730;BMP280;10526;50.850;12.928;2023-12-20T05:27:39;97416.22;;;3.72
20730;BMP280;10526;50.850;12.928;2023-12-20T05:32:02;97420.75;;;3.75
20730;BMP280;10526;50.850;12.928;2023-12-20T05:36:26;97415.47;;;3.75
20730;BMP280;10526;50.850;12.928;2023-12-20T05:40:48;97431.28;;;3.75
20730;BMP280;10526;50.850;12.928;2023-12-20T05:45:12;97429.06;;;3.78
20730;BMP280;10526;50.850;12.928;2023-12-20T05:49:36;97438.06;;;3.77
20730;BMP280;10526;50.850;12.928;2023-12-20T05:53:58;97423.00;;;3.73
20730;BMP280;10526;50.850;12.928;2023-12-20T05:58:20;97434.63;;;3.72
20730;BMP280;10526;50.850;12.928;2023-12-20T06:02:43;97442.97;;;3.78
20730;BMP280;10526;50.850;12.928;2023-12-20T06:07:05;97445.66;;;3.82
20730;BMP280;10526;50.850;12.928;2023-12-20T06:11:28;97445.34;;;3.87
20730;BMP280;10526;50.850;12.928;2023-12-20T06:15:51;97454.81;;;3.91
20730;BMP280;10526;50.850;12.928;2023-12-20T06:20:14;97455.69;;;4.03
20730;BMP280;10526;50.850;12.928;2023-12-20T06:24:36;97454.97;;;4.06
20730;BMP280;10526;50.850;12.928;2023-12-20T06:28:58;97467.81;;;4.11
20730;BMP280;10526;50.850;12.928;2023-12-20T06:33:20;97461.09;;;4.13
20730;BMP280;10526;50.850;12.928;2023-12-20T06:37:44;97471.69;;;4.17
20730;BMP280;10526;50.850;12.928;2023-12-20T06:42:06;97471.28;;;4.18
20730;BMP280;10526;50.850;12.928;2023-12-20T06:46:28;97478.47;;;4.21
20730;BMP280;10526;50.850;12.928;2023-12-20T06:50:50;97482.31;;;4.28
20730;BMP280;10526;50.850;12.928;2023-12-20T06:55:13;97484.53;;;4.25
20730;BMP280;10526;50.850;12.928;2023-12-20T06:59:42;97494.75;;;4.27
20730;BMP280;10526;50.850;12.928;2023-12-20T07:04:05;97489.06;;;4.25
20730;BMP280;10526;50.850;12.928;2023-12-20T07:08:27;97494.00;;;4.26
20730;BMP280;10526;50.850;12.928;2023-12-20T07:12:49;97495.50;;;4.28
20730;BMP280;10526;50.850;12.928;2023-12-20T07:17:13;97496.63;;;4.26
20730;BMP280;10526;50.850;12.928;2023-12-20T07:21:37;97506.00;;;4.24
20730;BMP280;10526;50.850;12.928;2023-12-20T07:25:59;97503.69;;;4.22
20730;BMP280;10526;50.850;12.928;2023-12-20T07:30:21;97501.06;;;4.22
20730;BMP280;10526;50.850;12.928;2023-12-20T07:34:43;97510.78;;;4.15
20730;BMP280;10526;50.850;12.928;2023-12-20T07:39:06;97509.13;;;4.03
20730;BMP280;10526;50.850;12.928;2023-12-20T07:43:28;97517.34;;;3.98
20730;BMP280;10526;50.850;12.928;2023-12-20T07:47:50;97505.22;;;3.90
20730;BMP280;10526;50.850;12.928;2023-12-20T07:52:12;97501.50;;;3.94
20730;BMP280;10526;50.850;12.928;2023-12-20T07:56:34;97506.09;;;4.01
20730;BMP280;10526;50.850;12.928;2023-12-20T08:00:56;97509.63;;;4.12
20730;BMP280;10526;50.850;12.928;2023-12-20T08:05:19;97510.44;;;4.16
20730;BMP280;10526;50.850;12.928;2023-12-20T08:09:41;97514.09;;;4.38
20730;BMP280;10526;50.850;12.928;2023-12-20T08:14:05;97518.03;;;5.51
20730;BMP280;10526;50.850;12.928;2023-12-20T08:18:27;97522.25;;;5.59
20730;BMP280;10526;50.850;12.928;2023-12-20T08:22:50;97524.03;;;5.44
20730;BMP280;10526;50.850;12.928;2023-12-20T08:27:12;97518.66;;;5.34
20730;BMP280;10526;50.850;12.928;2023-12-20T08:31:34;97517.91;;;5.33
20730;BMP280;10526;50.850;12.928;2023-12-20T08:35:56;97511.84;;;5.25
20730;BMP280;10526;50.850;12.928;2023-12-20T08:40:18;97524.97;;;5.11
20730;BMP280;10526;50.850;12.928;2023-12-20T08:44:43;97515.03;;;5.01
20730;BMP280;10526;50.850;12.928;2023-12-20T08:49:07;97516.75;;;4.83
20730;BMP280;10526;50.850;12.928;2023-12-20T08:53:31;97520.66;;;4.92
20730;BMP280;10526;50.850;12.928;2023-12-20T08:57:53;97530.84;;;5.49
20730;BMP280;10526;50.850;12.928;2023-12-20T09:02:18;97529.84;;;6.69
20730;BMP280;10526;50.850;12.928;2023-12-20T09:06:40;97531.13;;;8.13
20730;BMP280;10526;50.850;12.928;2023-12-20T09:11:02;97549.06;;;10.42
20730;BMP280;10526;50.850;12.928;2023-12-20T09:15:26;97547.72;;;12.72
20730;BMP280;10526;50.850;12.928;2023-12-20T09:19:50;97548.03;;;13.19
20730;BMP280;10526;50.850;12.928;2023-12-20T09:24:14;97547.88;;;13.27
20730;BMP280;10526;50.850;12.928;2023-12-20T09:28:37;97536.47;;;11.96
20730;BMP280;10526;50.850;12.928;2023-12-20T09:33:00;97536.94;;;12.27
20730;BMP280;10526;50.850;12.928;2023-12-20T09:37:26;97527.53;;;13.29
20730;BMP280;10526;50.850;12.928;2023-12-20T09:42:04;97525.94;;;11.89
20730;BMP280;10526;50.850;12.928;2023-12-20T09:46:27;97530.84;;;12.26
20730;BMP280;10526;50.850;12.928;2023-12-20T09:50:51;97518.03;;;11.26
20730;BMP280;10526;50.850;12.928;2023-12-20T09:55:15;97517.19;;;10.11
20730;BMP280;10526;50.850;12.928;2023-12-20T09:59:38;97506.78;;;8.84
20730;BMP280;10526;50.850;12.928;2023-12-20T10:04:02;97495.59;;;7.96
20730;BMP280;10526;50.850;12.928;2023-12-20T10:08:32;97477.22;;;7.43
20730;BMP280;10526;50.850;12.928;2023-12-20T10:13:09;97467.06;;;7.05
20730;BMP280;10526;50.850;12.928;2023-12-20T10:17:32;97460.66;;;6.88
20730;BMP280;10526;50.850;12.928;2023-12-20T10:21:54;97460.28;;;6.58
20730;BMP280;10526;50.850;12.928;2023-12-20T10:26:27;97461.00;;;6.33
20730;BMP280;10526;50.850;12.928;2023-12-20T10:30:50;97465.56;;;7.19
20730;BMP280;10526;50.850;12.928;2023-12-20T10:35:12;97453.59;;;10.44
20730;BMP280;10526;50.850;12.928;2023-12-20T10:39:35;97462.22;;;11.18
20730;BMP280;10526;50.850;12.928;2023-12-20T10:44:02;97459.59;;;12.07
20730;BMP280;10526;50.850;12.928;2023-12-20T10:48:25;97455.88;;;12.66
20730;BMP280;10526;50.850;12.928;2023-12-20T10:52:52;97446.69;;;13.25
20730;BMP280;10526;50.850;12.928;2023-12-20T10:57:18;97453.56;;;13.90
20730;BMP280;10526;50.850;12.928;2023-12-20T11:01:42;97435.91;;;13.67
20730;BMP280;10526;50.850;12.928;2023-12-20T11:07:17;97425.81;;;12.78
20730;BMP280;10526;50.850;12.928;2023-12-20T11:16:12;97442.03;;;9.77
20730;BMP280;10526;50.850;12.928;2023-12-20T11:20:40;97429.16;;;9.11
20730;BMP280;10526;50.850;12.928;2023-12-20T11:25:09;97408.06;;;8.52
20730;BMP280;10526;50.850;12.928;2023-12-20T11:29:35;97430.41;;;8.02
20730;BMP280;10526;50.850;12.928;2023-12-20T11:34:13;97438.84;;;7.79
20730;BMP280;10526;50.850;12.928;2023-12-20T11:38:55;97437.09;;;7.48
20730;BMP280;10526;50.850;12.928;2023-12-20T11:43:39;97423.94;;;7.23
20730;BMP280;10526;50.850;12.928;2023-12-20T11:48:04;97420.91;;;7.13
20730;BMP280;10526;50.850;12.928;2023-12-20T11:52:28;97409.53;;;8.08
20730;BMP280;10526;50.850;12.928;2023-12-20T11:56:50;97407.56;;;8.23
20730;BMP280;10526;50.850;12.928;2023-12-20T12:01:12;97389.00;;;8.19
20730;BMP280;10526;50.850;12.928;2023-12-20T12:05:35;97385.53;;;7.70
20730;BMP280;10526;50.850;12.928;2023-12-20T12:09:58;97389.09;;;7.31
20730;BMP280;10526;50.850;12.928;2023-12-20T12:14:20;97381.63;;;6.98
20730;BMP280;10526;50.850;12.928;2023-12-20T12:18:42;97362.00;;;6.81
20730;BMP280;10526;50.850;12.928;2023-12-20T12:23:05;97363.53;;;6.71
20730;BMP280;10526;50.850;12.928;2023-12-20T12:27:28;97352.56;;;6.69
20730;BMP280;10526;50.850;12.928;2023-12-20T12:31:51;97351.41;;;6.77
20730;BMP280;10526;50.850;12.928;2023-12-20T12:36:13;97330.97;;;6.92
20730;BMP280;10526;50.850;12.928;2023-12-20T12:40:38;97337.78;;;6.97
20730;BMP280;10526;50.850;12.928;2023-12-20T12:45:00;97318.09;;;6.91
20730;BMP280;10526;50.850;12.928;2023-12-20T12:49:22;97305.97;;;7.07
20730;BMP280;10526;50.850;12.928;2023-12-20T12:53:44;97314.28;;;7.06
20730;BMP280;10526;50.850;12.928;2023-12-20T12:58:06;97296.13;;;7.08
20730;BMP280;10526;50.850;12.928;2023-12-20T13:02:28;97301.38;;;7.22
20730;BMP280;10526;50.850;12.928;2023-12-20T13:06:51;97297.16;;;7.32
20730;BMP280;10526;50.850;12.928;2023-12-20T13:11:14;97298.56;;;7.54
20730;BMP280;10526;50.850;12.928;2023-12-20T13:15:35;97289.22;;;7.32
20730;BMP280;10526;50.850;12.928;2023-12-20T13:19:58;97287.75;;;7.17
20730;BMP280;10526;50.850;12.928;2023-12-20T13:24:20;97276.13;;;7.00
20730;BMP280;10526;50.850;12.928;2023-12-20T13:28:42;97266.31;;;6.90
20730;BMP280;10526;50.850;12.928;2023-12-20T13:33:05;97259.59;;;6.71
20730;BMP280;10526;50.850;12.928;2023-12-20T13:37:27;97254.69;;;6.66
20730;BMP280;10526;50.850;12.928;2023-12-20T13:41:50;97250.91;;;6.70
20730;BMP280;10526;50.850;12.928;2023-12-20T13:46:12;97250.94;;;6.49
20730;BMP280;10526;50.850;12.928;2023-12-20T13:50:35;97248.34;;;6.42
20730;BMP280;10526;50.850;12.928;2023-12-20T13:54:57;97245.31;;;6.47
20730;BMP280;10526;50.850;12.928;2023-12-20T13:59:19;97245.31;;;6.47
20730;BMP280;10526;50.850;12.928;2023-12-20T14:03:42;97263.41;;;6.48
20730;BMP280;10526;50.850;12.928;2023-12-20T14:08:04;97262.66;;;6.41
20730;BMP280;10526;50.850;12.928;2023-12-20T14:12:27;97258.53;;;6.32
20730;BMP280;10526;50.850;12.928;2023-12-20T14:16:48;97258.56;;;6.18
20730;BMP280;10526;50.850;12.928;2023-12-20T14:21:11;97253.66;;;6.02
20730;BMP280;10526;50.850;12.928;2023-12-20T14:25:33;97249.50;;;5.98
20730;BMP280;10526;50.850;12.928;2023-12-20T14:30:10;97242.69;;;5.93
20730;BMP280;10526;50.850;12.928;2023-12-20T14:34:33;97247.97;;;5.82
20730;BMP280;10526;50.850;12.928;2023-12-20T14:38:55;97246.47;;;5.74
20730;BMP280;10526;50.850;12.928;2023-12-20T14:43:17;97240.06;;;5.75
20730;BMP280;10526;50.850;12.928;2023-12-20T14:47:40;97250.63;;;5.75
20730;BMP280;10526;50.850;12.928;2023-12-20T14:52:02;97246.88;;;5.73
20730;BMP280;10526;50.850;12.928;2023-12-20T14:56:24;97268.34;;;5.71
20730;BMP280;10526;50.850;12.928;2023-12-20T15:00:47;97248.72;;;5.65
20730;BMP280;10526;50.850;12.928;2023-12-20T15:05:10;97238.91;;;5.51
20730;BMP280;10526;50.850;12.928;2023-12-20T15:09:32;97250.97;;;5.42
20730;BMP280;10526;50.850;12.928;2023-12-20T15:13:54;97254.38;;;5.42
20730;BMP280;10526;50.850;12.928;2023-12-20T15:18:22;97251.72;;;5.42
20730;BMP280;10526;50.850;12.928;2023-12-20T15:22:44;97255.13;;;5.43
20730;BMP280;10526;50.850;12.928;2023-12-20T15:27:07;97245.69;;;5.38
20730;BMP280;10526;50.850;12.928;2023-12-20T15:31:31;97229.81;;;5.35
20730;BMP280;10526;50.850;12.928;2023-12-20T15:35:54;97248.28;;;5.31
20730;BMP280;10526;50.850;12.928;2023-12-20T15:40:16;97246.41;;;5.28
20730;BMP280;10526;50.850;12.928;2023-12-20T15:44:38;97235.09;;;5.35
20730;BMP280;10526;50.850;12.928;2023-12-20T15:49:00;97236.97;;;5.27
20730;BMP280;10526;50.850;12.928;2023-12-20T15:53:23;97257.34;;;5.26
20730;BMP280;10526;50.850;12.928;2023-12-20T15:57:45;97251.28;;;5.22
20730;BMP280;10526;50.850;12.928;2023-12-20T16:02:15;97238.84;;;5.19
20730;BMP280;10526;50.850;12.928;2023-12-20T16:06:39;97245.63;;;5.20
20730;BMP280;10526;50.850;12.928;2023-12-20T16:11:01;97238.84;;;5.19
20730;BMP280;10526;50.850;12.928;2023-12-20T16:15:24;97243.72;;;5.17
20730;BMP280;10526;50.850;12.928;2023-12-20T16:19:46;97247.84;;;5.18
20730;BMP280;10526;50.850;12.928;2023-12-20T16:24:08;97237.28;;;5.18
20730;BMP280;10526;50.850;12.928;2023-12-20T16:28:30;97246.34;;;5.17
20730;BMP280;10526;50.850;12.928;2023-12-20T16:32:52;97226.75;;;5.18
20730;BMP280;10526;50.850;12.928;2023-12-20T16:37:15;97231.66;;;5.16
20730;BMP280;10526;50.850;12.928;2023-12-20T16:41:38;97229.75;;;5.17
20730;BMP280;10526;50.850;12.928;2023-12-20T16:46:03;97244.09;;;5.16
20730;BMP280;10526;50.850;12.928;2023-12-20T16:50:27;97241.81;;;5.18
20730;BMP280;10526;50.850;12.928;2023-12-20T16:54:49;97238.06;;;5.19
20730;BMP280;10526;50.850;12.928;2023-12-20T16:59:12;97247.13;;;5.21
20730;BMP280;10526;50.850;12.928;2023-12-20T17:03:34;97253.16;;;5.25
20730;BMP280;10526;50.850;12.928;2023-12-20T17:07:56;97248.63;;;5.29
20730;BMP280;10526;50.850;12.928;2023-12-20T17:12:22;97247.91;;;5.33
20730;BMP280;10526;50.850;12.928;2023-12-20T17:16:44;97244.91;;;5.38
20730;BMP280;10526;50.850;12.928;2023-12-20T17:21:07;97249.44;;;5.41
20730;BMP280;10526;50.850;12.928;2023-12-20T17:25:30;97235.13;;;5.42
20730;BMP280;10526;50.850;12.928;2023-12-20T17:29:53;97246.44;;;5.42
20730;BMP280;10526;50.850;12.928;2023-12-20T17:34:15;97241.91;;;5.43
20730;BMP280;10526;50.850;12.928;2023-12-20T17:38:37;97256.25;;;5.42
20730;BMP280;10526;50.850;12.928;2023-12-20T17:43:00;97254.72;;;5.41
20730;BMP280;10526;50.850;12.928;2023-12-20T17:47:25;97260.00;;;5.41
20730;BMP280;10526;50.850;12.928;2023-12-20T17:51:48;97250.94;;;5.38
20730;BMP280;10526;50.850;12.928;2023-12-20T17:56:10;97255.81;;;5.33
20730;BMP280;10526;50.850;12.928;2023-12-20T18:00:36;97245.63;;;5.31
20730;BMP280;10526;50.850;12.928;2023-12-20T18:04:58;97253.91;;;5.29
20730;BMP280;10526;50.850;12.928;2023-12-20T18:09:20;97253.19;;;5.29
20730;BMP280;10526;50.850;12.928;2023-12-20T18:13:42;97253.19;;;5.29
20730;BMP280;10526;50.850;12.928;2023-12-20T18:18:05;97245.28;;;5.29
20730;BMP280;10526;50.850;12.928;2023-12-20T18:22:30;97260.72;;;5.27
20730;BMP280;10526;50.850;12.928;2023-12-20T18:26:52;97262.22;;;5.24
20730;BMP280;10526;50.850;12.928;2023-12-20T18:31:14;97280.31;;;5.22
20730;BMP280;10526;50.850;12.928;2023-12-20T18:35:37;97264.47;;;5.19
20730;BMP280;10526;50.850;12.928;2023-12-20T18:40:03;97250.88;;;5.17
20730;BMP280;10526;50.850;12.928;2023-12-20T18:44:25;97257.63;;;5.11
20730;BMP280;10526;50.850;12.928;2023-12-20T18:48:47;97265.19;;;5.09
20730;BMP280;10526;50.850;12.928;2023-12-20T18:53:09;97264.06;;;5.10
20730;BMP280;10526;50.850;12.928;2023-12-20T18:57:32;97260.28;;;5.11
20730;BMP280;10526;50.850;12.928;2023-12-20T19:01:54;97262.16;;;5.10
20730;BMP280;10526;50.850;12.928;2023-12-20T19:06:18;97235.00;;;5.06
20730;BMP280;10526;50.850;12.928;2023-12-20T19:10:40;97248.56;;;5.01
20730;BMP280;10526;50.850;12.928;2023-12-20T19:15:02;97251.56;;;4.99
20730;BMP280;10526;50.850;12.928;2023-12-20T19:19:24;97227.44;;;5.01
20730;BMP280;10526;50.850;12.928;2023-12-20T19:23:46;97235.72;;;4.96
20730;BMP280;10526;50.850;12.928;2023-12-20T19:28:08;97242.88;;;4.92
20730;BMP280;10526;50.850;12.928;2023-12-20T19:32:31;97232.34;;;4.92
20730;BMP280;10526;50.850;12.928;2023-12-20T19:36:53;97229.31;;;4.90
20730;BMP280;10526;50.850;12.928;2023-12-20T19:41:15;97224.03;;;4.93
20730;BMP280;10526;50.850;12.928;2023-12-20T19:45:38;97219.13;;;4.95
20730;BMP280;10526;50.850;12.928;2023-12-20T19:50:01;97211.59;;;4.90
20730;BMP280;10526;50.850;12.928;2023-12-20T19:54:23;97190.47;;;4.87
20730;BMP280;10526;50.850;12.928;2023-12-20T19:58:46;97204.75;;;4.82
20730;BMP280;10526;50.850;12.928;2023-12-20T20:03:08;97196.47;;;4.84
20730;BMP280;10526;50.850;12.928;2023-12-20T20:07:30;97187.06;;;4.83
20730;BMP280;10526;50.850;12.928;2023-12-20T20:11:54;97186.69;;;4.84
20730;BMP280;10526;50.850;12.928;2023-12-20T20:16:16;97178.78;;;4.88
20730;BMP280;10526;50.850;12.928;2023-12-20T20:20:38;97176.13;;;4.88
20730;BMP280;10526;50.850;12.928;2023-12-20T20:25:00;97174.66;;;4.90
20730;BMP280;10526;50.850;12.928;2023-12-20T20:29:22;97167.13;;;4.89
20730;BMP280;10526;50.850;12.928;2023-12-20T20:33:44;97182.22;;;4.92
20730;BMP280;10526;50.850;12.928;2023-12-20T20:38:07;97163.34;;;4.90
20730;BMP280;10526;50.850;12.928;2023-12-20T20:42:29;97182.19;;;4.95
20730;BMP280;10526;50.850;12.928;2023-12-20T20:46:51;97170.91;;;4.95
20730;BMP280;10526;50.850;12.928;2023-12-20T20:51:14;97157.34;;;4.96
20730;BMP280;10526;50.850;12.928;2023-12-20T20:55:36;97153.56;;;5.01
20730;BMP280;10526;50.850;12.928;2023-12-20T21:00:00;97150.19;;;5.04
20730;BMP280;10526;50.850;12.928;2023-12-20T21:04:23;97162.66;;;5.03
20730;BMP280;10526;50.850;12.928;2023-12-20T21:08:45;97138.91;;;5.03
20730;BMP280;10526;50.850;12.928;2023-12-20T21:13:07;97129.44;;;5.02
20730;BMP280;10526;50.850;12.928;2023-12-20T21:17:29;97142.28;;;5.04
20730;BMP280;10526;50.850;12.928;2023-12-20T21:21:51;97125.31;;;5.05
20730;BMP280;10526;50.850;12.928;2023-12-20T21:26:13;97120.03;;;5.05
20730;BMP280;10526;50.850;12.928;2023-12-20T21:30:37;97087.63;;;5.04
20730;BMP280;10526;50.850;12.928;2023-12-20T21:35:00;97097.44;;;5.04
20730;BMP280;10526;50.850;12.928;2023-12-20T21:39:22;97105.34;;;5.04
20730;BMP280;10526;50.850;12.928;2023-12-20T21:43:46;97092.53;;;5.06
20730;BMP280;10526;50.850;12.928;2023-12-20T21:48:08;97085.00;;;5.08
20730;BMP280;10526;50.850;12.928;2023-12-20T21:52:30;97080.09;;;5.10
20730;BMP280;10526;50.850;12.928;2023-12-20T21:56:53;97080.47;;;5.12
20730;BMP280;10526;50.850;12.928;2023-12-20T22:01:17;97066.13;;;5.13
20730;BMP280;10526;50.850;12.928;2023-12-20T22:05:41;97047.66;;;5.13
20730;BMP280;10526;50.850;12.928;2023-12-20T22:10:05;97052.94;;;5.13
20730;BMP280;10526;50.850;12.928;2023-12-20T22:14:27;97043.53;;;5.12
20730;BMP280;10526;50.850;12.928;2023-12-20T22:18:51;97045.78;;;5.10
20730;BMP280;10526;50.850;12.928;2023-12-20T22:23:13;97039.41;;;5.04
20730;BMP280;10526;50.850;12.928;2023-12-20T22:27:36;97030.72;;;5.00
20730;BMP280;10526;50.850;12.928;2023-12-20T22:31:58;97021.66;;;5.01
20730;BMP280;10526;50.850;12.928;2023-12-20T22:36:21;96998.28;;;5.03
20730;BMP280;10526;50.850;12.928;2023-12-20T22:40:42;96990.38;;;5.03
20730;BMP280;10526;50.850;12.928;2023-12-20T22:45:05;96973.03;;;5.02
20730;BMP280;10526;50.850;12.928;2023-12-20T22:49:27;96972.69;;;5.00
20730;BMP280;10526;50.850;12.928;2023-12-20T22:53:50;96955.72;;;5.04
20730;BMP280;10526;50.850;12.928;2023-12-20T22:58:14;96943.66;;;5.07
20730;BMP280;10526;50.850;12.928;2023-12-20T23:02:37;96922.56;;;5.07
20730;BMP280;10526;50.850;12.928;2023-12-20T23:07:00;96916.16;;;5.08
20730;BMP280;10526;50.850;12.928;2023-12-20T23:11:22;96913.84;;;5.14
20730;BMP280;10526;50.850;12.928;2023-12-20T23:15:44;96906.31;;;5.16
20730;BMP280;10526;50.850;12.928;2023-12-20T23:20:07;96905.56;;;5.15
20730;BMP280;10526;50.850;12.928;2023-12-20T23:24:30;96883.31;;;5.16
20730;BMP280;10526;50.850;12.928;2023-12-20T23:28:52;96862.97;;;5.17
20730;BMP280;10526;50.850;12.928;2023-12-20T23:33:14;96858.44;;;5.21
20730;BMP280;10526;50.850;12.928;2023-12-20T23:37:38;96868.22;;;5.27
20730;BMP280;10526;50.850;12.928;2023-12-20T23:42:00;96848.97;;;5.30
20730;BMP280;10526;50.850;12.928;2023-12-20T23:46:22;96852.72;;;5.29
20730;BMP280;10526;50.850;12.928;2023-12-20T23:50:45;96845.97;;;5.28
20730;BMP280;10526;50.850;12.928;2023-12-20T23:55:07;96835.81;;;5.23
20730;BMP280;10526;50.850;12.928;2023-12-20T23:59:32;96827.16;;;5.19
